Time;durP1;ratioP1;P1;durP2;ratioP2;P2;SDS_P1;SDS_P2;PMS_P1;PMS_P2;Temp;Humidity;BMP_temperature;BMP_pressure;BME280_temperature;BME280_humidity;BME280_pressure;Samples;Min_cycle;Max_cycle;Signal;HPM_P1;HPM_P2
2023/03/19 00:01:27;;;;;;;16.58;11.55;;;13.90;27.70;;;;;;5013847;28;20409;-50
2023/03/19 00:03:53;;;;;;;18.13;12.80;;;13.90;27.80;;;;;;5013712;28;20216;-50
2023/03/19 00:06:19;;;;;;;18.77;13.05;;;13.90;27.90;;;;;;5012347;28;20460;-51
2023/03/19 00:08:45;;;;;;;17.73;12.20;;;13.80;27.90;;;;;;5013861;28;20175;-51
2023/03/19 00:11:12;;;;;;;20.00;12.07;;;13.80;27.80;;;;;;5013687;28;20401;-51
2023/03/19 00:13:39;;;;;;;15.32;12.50;;;13.80;27.80;;;;;;5013521;28;20657;-50
2023/03/19 00:16:06;;;;;;;18.10;13.63;;;13.90;28.50;;;;;;5013426;28;20179;-49
2023/03/19 00:18:31;;;;;;;17.35;12.40;;;13.90;28.00;;;;;;5013264;28;20532;-50
2023/03/19 00:20:57;;;;;;;16.63;13.57;;;13.80;27.90;;;;;;5013328;28;20171;-50
2023/03/19 00:23:23;;;;;;;18.43;13.37;;;13.80;27.80;;;;;;5013462;28;20644;-50
2023/03/19 00:25:49;;;;;;;15.47;12.43;;;13.80;27.80;;;;;;5013343;28;20449;-50
2023/03/19 00:28:15;;;;;;;17.33;12.73;;;13.90;27.90;;;;;;5012106;28;21000;-50
2023/03/19 00:30:43;;;;;;;20.67;13.60;;;13.90;27.90;;;;;;5013210;28;20209;-50
2023/03/19 00:33:09;;;;;;;20.00;13.65;;;13.90;27.90;;;;;;5013205;28;20262;-50
2023/03/19 00:35:35;;;;;;;18.30;12.70;;;13.80;27.80;;;;;;5013119;28;20249;-50
2023/03/19 00:38:01;;;;;;;15.38;12.27;;;13.80;27.90;;;;;;5012839;28;20195;-50
2023/03/19 00:40:27;;;;;;;18.92;12.60;;;13.80;28.00;;;;;;5013082;28;20182;-51
2023/03/19 00:42:53;;;;;;;19.70;12.90;;;13.80;27.80;;;;;;5012991;28;20201;-50
2023/03/19 00:45:19;;;;;;;21.23;12.80;;;13.80;27.90;;;;;;5013128;28;20181;-50
2023/03/19 00:47:45;;;;;;;17.30;12.30;;;13.80;27.80;;;;;;5012546;28;20241;-50
2023/03/19 00:50:11;;;;;;;24.90;13.40;;;13.80;27.80;;;;;;5013238;28;20194;-50
2023/03/19 00:52:36;;;;;;;17.52;11.95;;;13.70;27.90;;;;;;5013250;28;20175;-51
2023/03/19 00:55:02;;;;;;;15.83;11.30;;;13.70;27.90;;;;;;5013000;28;20182;-50
2023/03/19 00:57:28;;;;;;;18.73;12.87;;;13.60;28.10;;;;;;5012660;28;20195;-50
2023/03/19 00:59:54;;;;;;;18.27;12.50;;;13.60;28.20;;;;;;5013064;28;20414;-50
2023/03/19 01:02:19;;;;;;;24.33;14.30;;;13.50;28.20;;;;;;5012775;28;20179;-50
2023/03/19 01:04:48;;;;;;;15.67;11.90;;;13.50;28.30;;;;;;5012643;28;20278;-50
2023/03/19 01:07:13;;;;;;;20.67;12.75;;;13.50;28.40;;;;;;5012320;28;20465;-51
2023/03/19 01:09:40;;;;;;;18.17;12.83;;;13.50;28.70;;;;;;5012661;28;20221;-50
2023/03/19 01:12:06;;;;;;;18.25;12.65;;;13.40;28.60;;;;;;5012606;28;20170;-50
2023/03/19 01:14:32;;;;;;;20.67;13.68;;;13.30;28.60;;;;;;5012704;28;20254;-50
2023/03/19 01:16:59;;;;;;;16.98;14.32;;;13.40;28.60;;;;;;5012239;28;20590;-50
2023/03/19 01:19:26;;;;;;;16.38;13.40;;;13.40;28.50;;;;;;5012690;28;20186;-50
2023/03/19 01:21:52;;;;;;;19.10;14.38;;;13.40;28.40;;;;;;5012514;28;20170;-50
2023/03/19 01:24:18;;;;;;;15.63;11.97;;;13.50;28.40;;;;;;5012474;28;20179;-50
2023/03/19 01:26:44;;;;;;;15.70;12.35;;;13.40;28.30;;;;;;5012005;28;20472;-50
2023/03/19 01:29:10;;;;;;;16.75;12.88;;;13.50;28.30;;;;;;5012375;28;20666;-50
2023/03/19 01:31:36;;;;;;;15.17;11.23;;;13.50;28.20;;;;;;5012591;28;20180;-50
2023/03/19 01:34:02;;;;;;;18.27;12.70;;;13.50;28.20;;;;;;5012580;28;20870;-50
2023/03/19 01:36:28;;;;;;;17.92;11.07;;;13.50;28.20;;;;;;5012038;28;20175;-50
2023/03/19 01:38:54;;;;;;;22.13;12.70;;;13.50;28.90;;;;;;5012208;28;20232;-50
2023/03/19 01:41:22;;;;;;;16.35;12.20;;;13.50;28.10;;;;;;5012581;28;20210;-50
2023/03/19 01:43:48;;;;;;;17.50;13.25;;;13.40;28.10;;;;;;5012197;28;20655;-50
2023/03/19 01:46:13;;;;;;;16.27;11.97;;;13.50;28.20;;;;;;5011705;28;20182;-51
2023/03/19 01:48:49;;;;;;;15.80;12.00;;;13.50;28.10;;;;;;5012183;28;20174;-51
2023/03/19 01:51:19;;;;;;;17.25;13.30;;;13.50;28.20;;;;;;5012532;28;20163;-50
2023/03/19 01:53:49;;;;;;;19.77;13.77;;;13.40;28.10;;;;;;5012346;28;20180;-50
2023/03/19 01:56:19;;;;;;;16.67;12.13;;;13.40;28.30;;;;;;5011831;28;20527;-50
2023/03/19 01:58:47;;;;;;;21.30;13.00;;;13.40;28.40;;;;;;5012292;28;20179;-50
2023/03/19 02:01:14;;;;;;;15.15;11.32;;;13.40;28.70;;;;;;5012319;28;20194;-49
2023/03/19 02:03:41;;;;;;;17.73;13.43;;;13.40;29.40;;;;;;5011965;28;20717;-50
2023/03/19 02:06:09;;;;;;;21.92;13.50;;;13.30;29.10;;;;;;5012127;28;20178;-49
2023/03/19 02:08:37;;;;;;;17.13;13.88;;;13.30;29.30;;;;;;5012288;28;20254;-49
2023/03/19 02:11:04;;;;;;;18.08;13.25;;;13.20;29.30;;;;;;5012051;28;20171;-50
2023/03/19 02:13:30;;;;;;;16.60;13.70;;;13.20;29.50;;;;;;5012215;28;20539;-50
2023/03/19 02:15:57;;;;;;;19.02;13.80;;;13.10;29.90;;;;;;5011970;28;20685;-50
2023/03/19 02:18:24;;;;;;;19.08;13.32;;;13.00;29.90;;;;;;5011842;28;20252;-50
2023/03/19 02:21:12;;;;;;;23.98;16.23;;;13.00;29.80;;;;;;5011902;28;20174;-50
2023/03/19 02:24:02;;;;;;;18.38;13.45;;;12.90;29.80;;;;;;5011856;28;20190;-50
2023/03/19 02:26:29;;;;;;;16.40;11.15;;;12.90;29.70;;;;;;5011523;28;20211;-49
2023/03/19 02:28:55;;;;;;;16.42;13.30;;;12.90;29.50;;;;;;5011816;28;20258;-50
2023/03/19 02:31:22;;;;;;;15.93;12.68;;;13.00;29.40;;;;;;5011787;28;20875;-51
2023/03/19 02:34:20;;;;;;;15.10;11.27;;;13.00;29.20;;;;;;5011816;28;20241;-49
2023/03/19 02:37:01;;;;;;;17.38;12.93;;;13.10;30.00;;;;;;5011490;28;20848;-50
2023/03/19 02:39:36;;;;;;;19.40;15.18;;;13.10;29.20;;;;;;5011901;28;20193;-50
2023/03/19 02:42:03;;;;;;;16.27;11.13;;;13.10;29.20;;;;;;5011764;28;20177;-50
2023/03/19 02:44:29;;;;;;;16.08;11.32;;;13.10;29.10;;;;;;5011612;28;20178;-49
2023/03/19 02:46:55;;;;;;;18.93;12.20;;;13.20;29.10;;;;;;5011234;28;20217;-50
2023/03/19 02:49:20;;;;;;;23.10;13.43;;;13.20;28.90;;;;;;5011711;28;20265;-50
2023/03/19 02:51:46;;;;;;;18.50;12.10;;;13.20;28.70;;;;;;5014779;28;20508;-50
2023/03/19 02:54:12;;;;;;;20.57;13.93;;;13.30;28.80;;;;;;5015414;28;20405;-50
2023/03/19 02:56:38;;;;;;;22.93;14.43;;;13.20;28.70;;;;;;5014748;28;20257;-49
2023/03/19 02:59:03;;;;;;;18.03;13.03;;;13.20;28.60;;;;;;5014940;28;20182;-50
2023/03/19 03:01:29;;;;;;;22.40;13.43;;;13.30;28.70;;;;;;5015226;28;20273;-50
2023/03/19 03:03:55;;;;;;;19.80;12.13;;;13.30;28.60;;;;;;5015217;28;20179;-49
2023/03/19 03:06:21;;;;;;;14.40;11.90;;;13.30;28.50;;;;;;5014824;28;20593;-50
2023/03/19 03:08:47;;;;;;;14.63;10.70;;;13.30;28.80;;;;;;5014848;28;20401;-50
2023/03/19 03:11:13;;;;;;;14.45;10.82;;;13.30;28.90;;;;;;5014847;28;20178;-50
2023/03/19 03:13:38;;;;;;;17.00;11.67;;;13.20;29.20;;;;;;5014670;28;20512;-50
2023/03/19 03:16:04;;;;;;;15.30;12.00;;;13.20;29.60;;;;;;5014578;28;20174;-50
2023/03/19 03:18:30;;;;;;;12.93;11.07;;;13.10;29.80;;;;;;5013413;28;20182;-50
2023/03/19 03:20:56;;;;;;;18.83;12.30;;;13.10;30.00;;;;;;5014542;28;20790;-50
2023/03/19 03:23:22;;;;;;;16.30;10.57;;;13.00;30.10;;;;;;5014574;28;20257;-50
2023/03/19 03:25:50;;;;;;;16.60;13.07;;;12.90;30.10;;;;;;5014575;28;20264;-50
2023/03/19 03:28:16;;;;;;;17.05;11.57;;;12.80;30.20;;;;;;5014046;28;20757;-50
2023/03/19 03:30:42;;;;;;;18.30;12.07;;;12.70;30.70;;;;;;5014308;28;20548;-49
2023/03/19 03:33:08;;;;;;;15.90;10.60;;;12.60;30.60;;;;;;5014525;28;20170;-49
2023/03/19 03:35:34;;;;;;;15.20;11.05;;;12.50;30.90;;;;;;5014581;28;20464;-49
2023/03/19 03:38:00;;;;;;;22.63;12.77;;;12.30;30.90;;;;;;5014035;28;20679;-49
2023/03/19 03:40:26;;;;;;;16.13;12.53;;;12.30;30.90;;;;;;5013403;28;20409;-50
2023/03/19 03:42:52;;;;;;;16.87;13.67;;;12.30;31.00;;;;;;5014400;28;20497;-50
2023/03/19 03:45:17;;;;;;;13.47;11.50;;;12.30;30.50;;;;;;5014575;28;20441;-50
2023/03/19 03:47:43;;;;;;;19.20;12.83;;;12.30;30.40;;;;;;5014026;28;20987;-50
2023/03/19 03:50:09;;;;;;;18.93;12.20;;;12.40;30.20;;;;;;5014755;28;20412;-50
2023/03/19 03:52:36;;;;;;;16.30;13.80;;;12.40;30.10;;;;;;5014284;28;20178;-50
2023/03/19 03:55:03;;;;;;;18.13;13.18;;;12.40;29.90;;;;;;5014584;28;20179;-50
2023/03/19 03:57:29;;;;;;;19.88;12.50;;;12.50;30.00;;;;;;5013568;28;20221;-50
2023/03/19 03:59:55;;;;;;;19.33;13.03;;;12.50;29.80;;;;;;5013864;28;20213;-51
2023/03/19 04:02:21;;;;;;;19.63;13.30;;;12.50;29.70;;;;;;5013873;28;20421;-50
2023/03/19 04:04:47;;;;;;;19.00;12.73;;;12.50;29.50;;;;;;5013909;28;20694;-49
2023/03/19 04:07:13;;;;;;;20.98;14.52;;;12.60;29.30;;;;;;5013360;28;20201;-49
2023/03/19 04:09:39;;;;;;;21.17;12.13;;;12.60;29.30;;;;;;5013705;28;20539;-52
2023/03/19 04:12:05;;;;;;;18.23;12.63;;;12.60;29.30;;;;;;5013605;28;20408;-49
2023/03/19 04:14:31;;;;;;;15.93;13.20;;;12.60;29.20;;;;;;5013754;28;20740;-50
2023/03/19 04:16:56;;;;;;;16.58;12.65;;;12.60;29.30;;;;;;5013197;28;20949;-51
2023/03/19 04:19:22;;;;;;;20.13;13.00;;;12.60;29.30;;;;;;5013826;28;20186;-49
2023/03/19 04:21:48;;;;;;;20.10;12.60;;;12.60;29.20;;;;;;5013588;28;20256;-51
2023/03/19 04:24:14;;;;;;;19.47;11.83;;;12.60;29.30;;;;;;5013794;28;20546;-51
2023/03/19 04:26:41;;;;;;;16.80;11.60;;;12.60;30.00;;;;;;5012868;28;20480;-49
2023/03/19 04:29:07;;;;;;;18.25;11.73;;;12.60;29.40;;;;;;5013384;28;20197;-51
2023/03/19 04:31:33;;;;;;;17.10;14.27;;;12.60;29.50;;;;;;5013309;28;20177;-51
2023/03/19 04:33:59;;;;;;;17.57;12.00;;;12.60;29.50;;;;;;5013245;28;20229;-47
2023/03/19 04:36:25;;;;;;;23.27;13.40;;;12.60;29.50;;;;;;5013196;28;20457;-49
2023/03/19 04:38:51;;;;;;;16.02;12.38;;;12.50;29.60;;;;;;5013187;28;20186;-51
2023/03/19 04:41:17;;;;;;;20.17;11.80;;;12.60;29.60;;;;;;5013308;28;20190;-49
2023/03/19 04:43:42;;;;;;;18.63;12.73;;;12.60;29.70;;;;;;5013247;28;20186;-49
2023/03/19 04:46:08;;;;;;;15.70;11.30;;;12.60;29.60;;;;;;5012877;28;20186;-51
2023/03/19 04:48:35;;;;;;;16.85;11.95;;;12.60;29.70;;;;;;5013037;28;20337;-51
2023/03/19 04:51:02;;;;;;;14.20;11.95;;;12.60;29.70;;;;;;5012958;28;20727;-51
2023/03/19 04:53:28;;;;;;;18.13;13.75;;;12.60;29.70;;;;;;5012986;28;20224;-49
2023/03/19 04:55:55;;;;;;;16.52;11.95;;;12.60;29.70;;;;;;5012711;28;20589;-51
2023/03/19 04:58:21;;;;;;;17.83;11.43;;;12.60;29.70;;;;;;5012774;28;20198;-51
2023/03/19 05:00:47;;;;;;;15.35;10.82;;;12.60;29.70;;;;;;5013120;28;20181;-51
2023/03/19 05:03:14;;;;;;;15.57;11.50;;;12.60;29.80;;;;;;5012769;28;20618;-51
2023/03/19 05:05:39;;;;;;;17.40;10.80;;;12.60;29.90;;;;;;5013083;28;20421;-51
2023/03/19 05:08:06;;;;;;;15.77;11.27;;;12.60;29.90;;;;;;5012375;28;20225;-50
2023/03/19 05:10:33;;;;;;;15.00;11.85;;;12.50;29.90;;;;;;5012638;28;20587;-53
2023/03/19 05:12:59;;;;;;;19.73;12.13;;;12.50;29.80;;;;;;5012303;28;20189;-52
2023/03/19 05:15:25;;;;;;;21.20;12.93;;;12.50;29.80;;;;;;5012901;28;20511;-49
2023/03/19 05:17:51;;;;;;;21.60;13.37;;;12.40;29.70;;;;;;5012539;28;20833;-50
2023/03/19 05:20:18;;;;;;;15.73;11.50;;;12.40;29.80;;;;;;5012813;28;20201;-52
2023/03/19 05:22:45;;;;;;;17.00;12.32;;;12.30;30.10;;;;;;5012766;28;20178;-50
2023/03/19 05:25:11;;;;;;;18.15;12.00;;;12.30;30.30;;;;;;5012315;28;20201;-50
2023/03/19 05:27:37;;;;;;;16.30;12.30;;;12.20;30.40;;;;;;5012084;28;20562;-52
2023/03/19 05:30:04;;;;;;;19.70;12.70;;;12.10;30.40;;;;;;5012479;28;20492;-49
2023/03/19 05:32:30;;;;;;;15.63;11.55;;;12.10;30.40;;;;;;5012640;28;20171;-53
2023/03/19 05:34:57;;;;;;;16.20;11.98;;;12.10;30.20;;;;;;5012298;28;20650;-53
2023/03/19 05:37:23;;;;;;;15.38;11.23;;;12.10;30.10;;;;;;5011990;28;20205;-49
2023/03/19 05:39:50;;;;;;;16.98;11.93;;;12.20;30.00;;;;;;5012524;28;20189;-51
2023/03/19 05:42:16;;;;;;;15.77;11.82;;;12.20;30.00;;;;;;5012256;28;20175;-51
2023/03/19 05:44:41;;;;;;;18.27;11.67;;;12.20;30.00;;;;;;5012196;28;20193;-50
2023/03/19 05:47:09;;;;;;;17.30;12.47;;;12.20;30.20;;;;;;5011990;28;20216;-50
2023/03/19 05:49:35;;;;;;;18.73;11.77;;;12.30;30.50;;;;;;5012462;28;20488;-50
2023/03/19 05:52:01;;;;;;;16.90;12.20;;;12.20;30.60;;;;;;5012482;28;20262;-50
2023/03/19 05:54:27;;;;;;;13.67;11.03;;;12.20;30.90;;;;;;5012098;28;20663;-52
2023/03/19 05:56:52;;;;;;;19.70;13.30;;;12.10;31.20;;;;;;5011957;28;20195;-50
2023/03/19 05:59:18;;;;;;;14.17;11.37;;;12.10;31.20;;;;;;5012439;28;20421;-49
2023/03/19 06:01:44;;;;;;;15.00;11.80;;;12.00;31.50;;;;;;5012192;28;20269;-52
2023/03/19 06:04:10;;;;;;;22.23;12.43;;;12.00;31.50;;;;;;5012150;28;20658;-52
2023/03/19 06:06:35;;;;;;;14.00;11.30;;;11.90;31.80;;;;;;5011682;28;20473;-50
2023/03/19 06:09:01;;;;;;;16.37;10.33;;;11.90;31.90;;;;;;5012038;28;20201;-50
2023/03/19 06:11:27;;;;;;;13.93;8.98;;;11.90;31.80;;;;;;5010938;28;20182;-54
2023/03/19 06:13:53;;;;;;;19.70;11.53;;;11.90;31.90;;;;;;5011954;28;20179;-50
2023/03/19 06:16:19;;;;;;;14.63;10.20;;;12.00;32.10;;;;;;5011650;28;20163;-50
2023/03/19 06:18:45;;;;;;;19.13;11.07;;;12.00;31.90;;;;;;5010709;28;20179;-50
2023/03/19 06:21:11;;;;;;;16.67;12.02;;;12.10;31.80;;;;;;5011872;28;20416;-51
2023/03/19 06:23:37;;;;;;;19.03;12.50;;;12.10;31.70;;;;;;5011861;28;20182;-51
2023/03/19 06:26:04;;;;;;;19.60;10.98;;;12.20;31.50;;;;;;5014015;28;20806;-50
2023/03/19 06:28:31;;;;;;;17.08;11.80;;;12.20;31.30;;;;;;5015250;28;20227;-49
2023/03/19 06:30:57;;;;;;;14.80;10.52;;;12.30;30.90;;;;;;5015725;28;20182;-53
2023/03/19 06:33:26;;;;;;;19.50;12.30;;;12.40;30.90;;;;;;5015406;28;20170;-50
2023/03/19 06:35:52;;;;;;;17.38;12.65;;;12.50;30.40;;;;;;5015624;28;20405;-53
2023/03/19 06:38:18;;;;;;;15.98;10.95;;;12.50;29.80;;;;;;5015171;28;20198;-52
2023/03/19 06:40:44;;;;;;;15.63;10.73;;;12.70;29.80;;;;;;5015387;28;20177;-51
2023/03/19 06:43:09;;;;;;;15.63;11.27;;;12.80;29.40;;;;;;5015280;28;20408;-51
2023/03/19 06:45:35;;;;;;;15.57;12.07;;;12.90;29.00;;;;;;5015530;28;20271;-54
2023/03/19 06:48:01;;;;;;;18.37;10.13;;;13.10;28.90;;;;;;5014867;28;20213;-51
2023/03/19 06:50:27;;;;;;;14.73;10.67;;;13.20;28.50;;;;;;5015154;28;20414;-52
2023/03/19 06:52:52;;;;;;;16.40;11.97;;;13.20;28.60;;;;;;5015410;28;20202;-49
2023/03/19 06:55:19;;;;;;;16.70;10.93;;;13.30;28.20;;;;;;5015094;28;20602;-52
2023/03/19 06:57:49;;;;;;;19.15;11.43;;;13.50;28.30;;;;;;5015054;28;20211;-50
2023/03/19 07:00:15;;;;;;;13.90;10.38;;;13.60;27.50;;;;;;5015311;28;20174;-50
2023/03/19 07:02:42;;;;;;;18.02;10.63;;;13.60;27.10;;;;;;5014902;28;20178;-50
2023/03/19 07:05:08;;;;;;;14.82;10.27;;;13.70;27.40;;;;;;5014922;28;20753;-52
2023/03/19 07:07:34;;;;;;;12.10;9.90;;;13.80;27.20;;;;;;5014572;28;20210;-48
2023/03/19 07:10:00;;;;;;;16.10;10.87;;;13.90;27.50;;;;;;5014881;28;20425;-49
2023/03/19 07:12:28;;;;;;;15.50;10.87;;;14.00;26.90;;;;;;5014925;28;20595;-53
2023/03/19 07:14:57;;;;;;;15.52;10.43;;;14.00;26.60;;;;;;5014696;28;20765;-50
2023/03/19 07:17:24;;;;;;;15.75;10.52;;;14.00;26.20;;;;;;5014443;28;20194;-54
2023/03/19 07:19:50;;;;;;;14.88;11.02;;;14.10;26.40;;;;;;5014771;28;20179;-50
2023/03/19 07:22:16;;;;;;;16.13;9.20;;;14.10;26.50;;;;;;5014750;28;20218;-53
2023/03/19 07:24:42;;;;;;;14.43;12.40;;;14.20;25.70;;;;;;5014788;28;20194;-52
2023/03/19 07:27:08;;;;;;;16.42;10.43;;;14.20;25.90;;;;;;5014332;28;20476;-49
2023/03/19 07:29:35;;;;;;;15.60;10.13;;;14.20;25.90;;;;;;5014595;28;20185;-51
2023/03/19 07:32:01;;;;;;;16.30;12.13;;;14.20;25.80;;;;;;5014753;28;20174;-52
2023/03/19 07:34:26;;;;;;;16.03;11.33;;;14.20;25.70;;;;;;5014656;28;20250;-49
2023/03/19 07:36:52;;;;;;;16.63;11.37;;;14.30;25.90;;;;;;5013887;28;20517;-50
2023/03/19 07:39:19;;;;;;;18.30;10.77;;;14.40;26.00;;;;;;5014424;28;20221;-52
2023/03/19 07:41:47;;;;;;;12.95;11.00;;;14.40;26.00;;;;;;5014521;28;20178;-50
2023/03/19 07:44:14;;;;;;;18.75;11.38;;;14.40;25.80;;;;;;5014558;28;20193;-51
2023/03/19 07:46:39;;;;;;;13.88;9.32;;;14.50;25.60;;;;;;5013973;28;20562;-52
2023/03/19 07:49:06;;;;;;;11.67;9.50;;;14.60;25.50;;;;;;5014352;28;20171;-52
2023/03/19 07:51:32;;;;;;;19.50;11.20;;;14.80;25.40;;;;;;5014198;28;20181;-51
2023/03/19 07:53:58;;;;;;;15.07;10.23;;;14.80;25.60;;;;;;5013866;28;20175;-50
2023/03/19 07:56:24;;;;;;;14.53;10.27;;;14.90;25.60;;;;;;5013636;28;20186;-53
2023/03/19 07:58:50;;;;;;;14.90;10.13;;;14.90;25.20;;;;;;5013915;28;20166;-50
2023/03/19 08:01:16;;;;;;;17.83;11.70;;;15.10;25.60;;;;;;5013747;28;20202;-50
2023/03/19 08:03:42;;;;;;;15.95;10.52;;;15.20;25.00;;;;;;5013805;28;20174;-52
2023/03/19 08:06:08;;;;;;;13.37;11.10;;;15.30;25.00;;;;;;5013923;28;20175;-50
2023/03/19 08:08:34;;;;;;;16.87;12.27;;;15.40;24.80;;;;;;5013812;28;20469;-52
2023/03/19 08:11:00;;;;;;;16.43;10.73;;;15.50;25.10;;;;;;5013756;28;20778;-50
2023/03/19 08:13:27;;;;;;;15.02;11.43;;;15.60;24.30;;;;;;5013589;28;20463;-50
2023/03/19 08:15:53;;;;;;;15.73;10.13;;;15.80;24.80;;;;;;5013541;28;20657;-52
2023/03/19 08:18:19;;;;;;;15.50;11.57;;;15.80;24.20;;;;;;5013542;28;20598;-52
2023/03/19 08:20:45;;;;;;;14.80;11.50;;;15.90;24.40;;;;;;5013730;28;20185;-50
2023/03/19 08:23:12;;;;;;;13.98;9.70;;;16.00;24.00;;;;;;5013546;28;20902;-52
2023/03/19 08:25:38;;;;;;;14.95;11.32;;;16.10;23.80;;;;;;5013603;28;20621;-53
2023/03/19 08:28:04;;;;;;;15.93;10.40;;;16.00;24.00;;;;;;5013253;28;20206;-50
2023/03/19 08:30:30;;;;;;;15.52;10.85;;;16.20;23.90;;;;;;5013570;28;20171;-52
2023/03/19 08:32:56;;;;;;;12.23;10.43;;;16.20;24.00;;;;;;5013414;28;20228;-50
2023/03/19 08:35:25;;;;;;;16.77;10.10;;;16.40;23.50;;;;;;5013328;28;20198;-53
2023/03/19 08:37:52;;;;;;;13.35;10.32;;;16.40;24.00;;;;;;5013013;28;20202;-51
2023/03/19 08:40:18;;;;;;;17.05;10.88;;;16.60;23.70;;;;;;5013249;28;20182;-50
2023/03/19 08:42:43;;;;;;;18.20;10.70;;;16.60;23.00;;;;;;5013161;28;20171;-54
2023/03/19 08:45:11;;;;;;;15.93;11.07;;;16.60;23.40;;;;;;5013374;28;20662;-51
2023/03/19 08:47:37;;;;;;;14.30;10.60;;;16.60;22.50;;;;;;5011924;28;20202;-51
2023/03/19 08:50:04;;;;;;;14.32;10.43;;;16.70;23.70;;;;;;5013230;28;20171;-52
2023/03/19 08:52:30;;;;;;;14.10;9.30;;;16.80;22.90;;;;;;5013020;28;20245;-53
2023/03/19 08:54:56;;;;;;;15.33;10.77;;;16.90;23.30;;;;;;5012818;28;20258;-50
2023/03/19 08:57:21;;;;;;;12.13;10.07;;;17.00;23.10;;;;;;5012789;28;20442;-52
2023/03/19 08:59:47;;;;;;;13.60;9.97;;;17.10;23.50;;;;;;5012841;28;20174;-50
2023/03/19 09:02:13;;;;;;;16.20;11.10;;;17.20;23.00;;;;;;5013035;28;20171;-49
2023/03/19 09:04:42;;;;;;;12.30;9.33;;;17.30;22.80;;;;;;5012691;28;20181;-52
2023/03/19 09:07:12;;;;;;;14.18;10.90;;;17.30;22.60;;;;;;5012439;28;20498;-49
2023/03/19 09:09:38;;;;;;;12.70;10.15;;;17.30;22.60;;;;;;5012698;28;20170;-51
2023/03/19 09:12:06;;;;;;;12.52;10.55;;;17.20;22.40;;;;;;5012576;28;20170;-52
2023/03/19 09:14:32;;;;;;;12.63;9.82;;;17.30;22.50;;;;;;5012545;28;20204;-50
2023/03/19 09:16:58;;;;;;;14.02;9.95;;;17.30;22.80;;;;;;5012476;28;20194;-50
2023/03/19 09:19:24;;;;;;;15.00;10.23;;;17.40;22.80;;;;;;5012489;28;20512;-51
2023/03/19 09:21:50;;;;;;;15.57;10.40;;;17.50;22.40;;;;;;5012476;28;20246;-52
2023/03/19 09:24:17;;;;;;;13.97;10.00;;;17.60;22.50;;;;;;5012431;28;20205;-49
2023/03/19 09:26:44;;;;;;;16.08;11.13;;;17.70;22.40;;;;;;5011930;28;20465;-52
2023/03/19 09:29:10;;;;;;;14.38;10.05;;;17.80;22.90;;;;;;5012446;28;20181;-52
2023/03/19 09:31:36;;;;;;;11.77;9.60;;;17.90;22.40;;;;;;5012683;28;20167;-50
2023/03/19 09:34:02;;;;;;;12.10;10.40;;;17.90;22.40;;;;;;5012438;28;20408;-50
2023/03/19 09:36:28;;;;;;;13.83;9.70;;;18.00;22.50;;;;;;5012009;28;20248;-52
2023/03/19 09:38:54;;;;;;;13.70;10.50;;;18.10;22.50;;;;;;5012532;28;20398;-51
2023/03/19 09:41:40;;;;;;;14.68;10.90;;;18.10;22.50;;;;;;5012368;28;20197;-50
2023/03/19 09:44:16;;;;;;;15.20;11.35;;;18.30;22.50;;;;;;5012438;28;20174;-52
2023/03/19 09:46:55;;;;;;;18.23;11.38;;;18.40;21.90;;;;;;5011812;28;20296;-49
2023/03/19 09:49:28;;;;;;;13.23;10.40;;;18.40;22.80;;;;;;5012184;28;20163;-52
2023/03/19 09:52:25;;;;;;;14.70;11.55;;;18.40;21.60;;;;;;5012043;28;20840;-50
2023/03/19 09:54:54;;;;;;;14.00;9.90;;;18.40;21.80;;;;;;5012187;28;20225;-49
2023/03/19 09:57:20;;;;;;;13.95;10.15;;;18.40;22.00;;;;;;5012108;28;20217;-51
2023/03/19 09:59:47;;;;;;;13.55;10.63;;;18.40;21.70;;;;;;5014049;28;20262;-51
2023/03/19 10:02:18;;;;;;;14.98;11.68;;;18.50;22.20;;;;;;5015968;28;20178;-50
2023/03/19 10:04:57;;;;;;;19.13;11.30;;;18.60;21.50;;;;;;5016192;28;20270;-52
2023/03/19 10:07:48;;;;;;;14.88;10.70;;;18.70;22.40;;;;;;5015626;28;20218;-50
2023/03/19 10:10:21;;;;;;;16.08;10.52;;;18.80;21.90;;;;;;5015822;28;20185;-51
2023/03/19 10:12:58;;;;;;;16.65;11.35;;;18.90;22.30;;;;;;5014710;28;20181;-51
2023/03/19 10:15:32;;;;;;;13.90;10.98;;;19.00;21.50;;;;;;5014294;28;20167;-51
2023/03/19 10:18:18;;;;;;;15.88;9.57;;;19.00;21.70;;;;;;5014359;28;20206;-51
2023/03/19 10:21:02;;;;;;;17.92;11.30;;;19.20;22.00;;;;;;5014615;28;20780;-51
2023/03/19 10:23:33;;;;;;;14.98;11.00;;;19.30;21.00;;;;;;5014845;28;20648;-51
2023/03/19 10:26:03;;;;;;;14.10;10.82;;;19.40;21.00;;;;;;5014615;28;20206;-51
2023/03/19 10:28:29;;;;;;;18.17;13.23;;;19.50;21.80;;;;;;5014363;28;20245;-51
2023/03/19 10:31:27;;;;;;;14.85;10.88;;;19.70;21.60;;;;;;5014558;28;20209;-51
2023/03/19 10:34:03;;;;;;;14.25;12.60;;;19.90;21.10;;;;;;5013368;28;20175;-50
2023/03/19 10:36:34;;;;;;;17.50;11.18;;;20.00;21.80;;;;;;5014251;28;20166;-51
2023/03/19 10:39:00;;;;;;;13.55;10.90;;;20.20;20.70;;;;;;5014569;28;20179;-51
2023/03/19 10:41:50;;;;;;;15.80;10.32;;;20.20;21.20;;;;;;5014775;28;20178;-50
2023/03/19 10:44:35;;;;;;;12.77;11.45;;;20.30;20.20;;;;;;5014364;28;20175;-50
2023/03/19 10:47:13;;;;;;;15.30;10.68;;;20.20;20.70;;;;;;5014016;28;20677;-50
2023/03/19 10:49:39;;;;;;;16.13;11.02;;;20.20;21.00;;;;;;5014263;28;20173;-50
2023/03/19 10:52:15;;;;;;;17.80;12.57;;;20.20;21.50;;;;;;5014131;28;20837;-50
2023/03/19 10:54:44;;;;;;;14.98;11.25;;;20.40;21.60;;;;;;5014591;28;20194;-50
2023/03/19 10:57:23;;;;;;;17.92;13.05;;;20.50;20.80;;;;;;5013908;28;20199;-50
2023/03/19 10:59:49;;;;;;;15.65;11.63;;;20.50;20.40;;;;;;5014123;28;20269;-50
2023/03/19 11:02:22;;;;;;;15.67;12.50;;;20.50;21.00;;;;;;5014033;28;20251;-51
2023/03/19 11:05:04;;;;;;;16.88;12.10;;;20.60;21.10;;;;;;5014216;28;20417;-51
2023/03/19 11:07:31;;;;;;;12.77;11.13;;;20.50;20.90;;;;;;5013897;28;20257;-50
2023/03/19 11:09:58;;;;;;;14.63;11.93;;;20.60;20.60;;;;;;5013906;28;20197;-50
2023/03/19 11:12:30;;;;;;;13.75;12.07;;;20.70;20.50;;;;;;5013312;28;20262;-51
2023/03/19 11:14:57;;;;;;;15.55;11.05;;;20.70;20.70;;;;;;5014291;28;20248;-50
2023/03/19 11:17:36;;;;;;;15.90;11.60;;;20.70;20.60;;;;;;5013702;28;20256;-50
2023/03/19 11:20:14;;;;;;;22.65;12.73;;;20.80;21.10;;;;;;5013684;28;20163;-51
2023/03/19 11:22:41;;;;;;;13.18;11.32;;;20.80;20.70;;;;;;5013761;28;20697;-51
2023/03/19 11:25:20;;;;;;;14.55;11.77;;;21.00;21.20;;;;;;5013530;28;20648;-51
2023/03/19 11:28:13;;;;;;;12.18;9.73;;;21.10;21.10;;;;;;5013317;28;20244;-51
2023/03/19 11:30:54;;;;;;;14.90;11.27;;;21.10;21.00;;;;;;5014235;28;20182;-51
2023/03/19 11:34:08;;;;;;;13.85;11.48;;;21.10;20.40;;;;;;5017267;28;20181;-50
2023/03/19 11:37:00;;;;;;;16.92;12.45;;;21.10;20.80;;;;;;5030260;28;20713;-51
2023/03/19 11:39:52;;;;;;;12.45;10.57;;;21.20;21.00;;;;;;5001952;28;20183;-50
2023/03/19 11:42:44;;;;;;;13.45;10.30;;;21.20;20.70;;;;;;5003932;28;20221;-50
2023/03/19 11:45:38;;;;;;;18.95;11.82;;;21.30;21.60;;;;;;5010693;28;20543;-50
2023/03/19 11:48:15;;;;;;;18.33;13.35;;;21.50;21.40;;;;;;4985404;28;20344;-51
2023/03/19 11:50:44;;;;;;;19.17;12.88;;;21.70;20.50;;;;;;5010545;28;20631;-50
2023/03/19 11:53:40;;;;;;;14.13;11.70;;;21.80;19.70;;;;;;5010454;28;20178;-51
2023/03/19 11:56:28;;;;;;;17.77;11.70;;;21.70;20.00;;;;;;5009268;28;20273;-51
2023/03/19 11:59:18;;;;;;;13.52;10.10;;;21.80;20.40;;;;;;5018266;28;20257;-51
2023/03/19 12:02:06;;;;;;;16.48;12.63;;;21.90;20.30;;;;;;5010529;28;20196;-50
2023/03/19 12:04:53;;;;;;;15.45;11.85;;;22.10;21.00;;;;;;5010494;28;20249;-51
2023/03/19 12:07:31;;;;;;;15.75;12.85;;;22.10;19.50;;;;;;5011300;28;20949;-51
2023/03/19 12:10:05;;;;;;;13.73;11.10;;;22.10;19.90;;;;;;5012939;28;20162;-51
2023/03/19 12:12:56;;;;;;;14.25;10.52;;;22.00;20.00;;;;;;5012809;28;20305;-51
2023/03/19 12:15:36;;;;;;;19.02;10.77;;;22.00;20.60;;;;;;5012660;28;20174;-51
2023/03/19 12:18:22;;;;;;;12.02;10.73;;;22.00;20.40;;;;;;5012659;28;20272;-51
2023/03/19 12:21:08;;;;;;;13.10;11.43;;;22.00;20.90;;;;;;5012188;28;20182;-51
2023/03/19 12:24:02;;;;;;;16.25;12.02;;;21.90;20.70;;;;;;5012537;28;20651;-50
2023/03/19 12:27:19;;;;;;;13.65;11.63;;;21.90;21.20;;;;;;5011604;28;20206;-51
2023/03/19 12:30:02;;;;;;;16.25;12.07;;;22.10;20.80;;;;;;4989900;28;20272;-51
2023/03/19 12:32:41;;;;;;;14.38;10.10;;;22.20;20.00;;;;;;5012539;28;20154;-51
2023/03/19 12:35:17;;;;;;;14.45;10.95;;;22.20;20.60;;;;;;5012403;28;20163;-51
2023/03/19 12:38:00;;;;;;;15.82;12.18;;;22.20;20.10;;;;;;5012356;28;20252;-51
2023/03/19 12:40:29;;;;;;;13.70;10.50;;;22.00;19.90;;;;;;5012180;28;20181;-51